createdAt,value
2023-03-21T11:36:08.543Z,3.08
2023-03-21T11:38:39.855Z,2.30
2023-03-21T11:41:08.092Z,2.80
2023-03-21T11:43:37.891Z,2.30
2023-03-21T11:46:05.762Z,2.50
2023-03-21T11:48:39.410Z,2.22
2023-03-21T11:51:35.676Z,2.35
2023-03-21T11:54:25.378Z,2.20
2023-03-21T11:56:56.949Z,2.55
2023-03-21T11:59:27.050Z,2.63
2023-03-21T12:02:18.470Z,2.60
2023-03-21T12:05:21.045Z,2.20
2023-03-21T12:07:50.623Z,2.10
2023-03-21T12:10:33.427Z,2.00
2023-03-21T12:13:00.345Z,2.05
2023-03-21T12:15:43.194Z,1.83
2023-03-21T12:18:37.171Z,1.63
2023-03-21T12:21:14.477Z,2.00
2023-03-21T12:24:10.154Z,1.83
2023-03-21T12:26:53.044Z,1.70
2023-03-21T12:29:36.738Z,1.65
2023-03-21T12:32:46.755Z,2.25
2023-03-21T12:35:24.025Z,1.80
2023-03-21T12:38:14.183Z,2.15
2023-03-21T12:40:53.683Z,2.10
2023-03-21T12:43:46.558Z,2.00
2023-03-21T12:46:21.848Z,2.00
2023-03-21T12:48:58.551Z,2.15
2023-03-21T12:51:44.152Z,2.20
2023-03-21T12:54:27.000Z,2.20
2023-03-21T12:57:13.342Z,2.10
2023-03-21T12:59:50.518Z,2.22
2023-03-21T13:02:45.966Z,2.00
2023-03-21T13:05:31.982Z,2.15
2023-03-21T13:08:09.944Z,2.42
2023-03-21T13:10:37.514Z,3.55
2023-03-21T13:13:39.613Z,3.85
2023-03-21T13:16:27.500Z,6.13
2023-03-21T13:19:00.494Z,2.30
2023-03-21T13:21:55.449Z,2.25
2023-03-21T13:24:22.289Z,2.33
2023-03-21T13:26:51.555Z,2.10
2023-03-21T13:29:32.766Z,2.05
2023-03-21T13:32:09.719Z,2.10
2023-03-21T13:34:40.594Z,2.08
2023-03-21T13:37:15.741Z,2.17
2023-03-21T13:39:46.672Z,2.30
2023-03-21T13:42:34.048Z,1.95
2023-03-21T13:45:02.697Z,2.00
2023-03-21T13:47:52.458Z,2.10
2023-03-21T13:50:28.969Z,1.80
2023-03-21T13:53:02.262Z,1.70
2023-03-21T13:55:36.697Z,1.88
2023-03-21T13:58:31.817Z,2.40
2023-03-21T14:01:17.795Z,2.30
2023-03-21T14:03:50.023Z,2.28
2023-03-21T14:06:18.784Z,1.70
2023-03-21T14:08:49.091Z,1.80
2023-03-21T14:11:21.131Z,1.98
2023-03-21T14:13:51.710Z,1.90
2023-03-21T14:16:20.782Z,1.98
2023-03-21T14:18:56.242Z,1.73
2023-03-21T14:21:26.894Z,1.77
2023-03-21T14:24:03.451Z,1.80
2023-03-21T14:26:44.446Z,1.77
2023-03-21T14:29:26.241Z,1.77
2023-03-21T14:31:56.395Z,1.83
2023-03-21T14:34:26.257Z,2.10
2023-03-21T14:36:58.159Z,1.98
2023-03-21T14:39:31.527Z,2.00
2023-03-21T14:42:11.925Z,1.45
2023-03-21T14:44:53.809Z,1.60
2023-03-21T14:47:23.902Z,1.85
2023-03-21T14:49:51.895Z,2.00
2023-03-21T14:52:35.005Z,1.70
2023-03-21T14:55:06.279Z,1.55
2023-03-21T14:57:33.947Z,1.80
2023-03-21T15:00:12.824Z,1.67
2023-03-21T15:02:41.999Z,1.90
2023-03-21T15:05:11.008Z,2.25
2023-03-21T15:07:38.280Z,1.83
2023-03-21T15:10:25.424Z,1.80
2023-03-21T15:12:58.721Z,1.90
2023-03-21T15:15:28.337Z,2.13
2023-03-21T15:18:00.517Z,1.90
2023-03-21T15:20:34.184Z,2.17
2023-03-21T15:23:05.372Z,2.03
2023-03-21T15:25:36.415Z,2.47
2023-03-21T15:28:08.262Z,2.00
2023-03-21T15:30:36.434Z,2.10
2023-03-21T15:33:09.946Z,3.10
2023-03-21T15:35:43.259Z,2.15
2023-03-21T15:38:21.789Z,1.80
2023-03-21T15:40:49.000Z,1.95
2023-03-21T15:43:21.840Z,2.20
2023-03-21T15:45:55.457Z,2.08
2023-03-21T15:48:28.614Z,2.10
2023-03-21T15:50:56.762Z,2.28
2023-03-21T15:53:25.564Z,2.13
2023-03-21T15:56:03.337Z,2.30
2023-03-21T15:58:37.068Z,2.67
2023-03-21T16:01:07.185Z,2.40
2023-03-21T16:03:42.190Z,2.83
2023-03-21T16:06:15.050Z,3.05
2023-03-21T16:08:46.486Z,2.53
2023-03-21T16:11:23.201Z,2.42
2023-03-21T16:13:51.738Z,3.50
2023-03-21T16:16:27.413Z,3.20
2023-03-21T16:18:56.339Z,2.92
2023-03-21T16:21:28.706Z,3.17
2023-03-21T16:23:58.354Z,3.22
2023-03-21T16:26:30.803Z,2.72
2023-03-21T16:31:31.048Z,2.70
2023-03-21T16:33:58.269Z,2.50
2023-03-21T16:36:32.003Z,2.80
2023-03-21T16:39:00.450Z,3.10
2023-03-21T16:41:29.772Z,3.05
2023-03-21T16:44:00.132Z,3.03
2023-03-21T16:46:28.402Z,3.53
2023-03-21T16:48:58.223Z,3.88
2023-03-21T16:51:31.588Z,3.60
2023-03-21T16:53:59.293Z,4.40
2023-03-21T16:56:51.696Z,3.75
2023-03-21T16:59:19.440Z,3.92
2023-03-21T17:01:48.445Z,3.80
2023-03-21T17:04:17.279Z,3.38
2023-03-21T17:06:53.947Z,3.72
2023-03-21T17:09:23.801Z,3.65
2023-03-21T17:11:51.599Z,2.95
2023-03-21T17:14:18.872Z,3.15
2023-03-21T17:16:46.381Z,3.45
2023-03-21T17:19:18.152Z,2.97
2023-03-21T17:21:45.999Z,2.97
2023-03-21T17:24:13.860Z,2.95
2023-03-21T17:26:42.990Z,2.90
2023-03-21T17:29:14.370Z,3.00
2023-03-21T17:31:42.618Z,2.90
2023-03-21T17:34:11.125Z,2.92
2023-03-21T17:36:40.577Z,3.05
2023-03-21T17:39:14.407Z,3.53
2023-03-21T17:42:18.326Z,3.40
2023-03-21T17:44:46.630Z,3.50
2023-03-21T17:47:13.580Z,3.30
2023-03-21T17:49:41.281Z,4.13
2023-03-21T17:52:08.828Z,3.95
2023-03-21T17:54:42.408Z,3.97
2023-03-21T17:57:12.476Z,4.45
2023-03-21T17:59:39.285Z,4.25
2023-03-21T18:02:08.116Z,4.07
2023-03-21T18:04:37.590Z,3.60
2023-03-21T18:07:06.908Z,4.65
2023-03-21T18:09:35.639Z,4.32
2023-03-21T18:12:02.611Z,3.97
2023-03-21T18:14:30.674Z,4.15
2023-03-21T18:16:59.752Z,3.97
2023-03-21T18:19:27.676Z,5.15
2023-03-21T18:21:55.114Z,4.75
2023-03-21T18:24:21.978Z,5.10
2023-03-21T18:26:48.917Z,5.05
2023-03-21T18:30:15.777Z,5.65
2023-03-21T18:32:08.033Z,5.55
2023-03-21T18:34:38.929Z,5.53
2023-03-21T18:37:08.175Z,6.80
2023-03-21T18:39:36.540Z,6.88
2023-03-21T18:42:05.632Z,6.60
2023-03-21T18:44:38.875Z,6.75
2023-03-21T18:47:07.366Z,7.20
2023-03-21T18:52:23.123Z,7.03
2023-03-21T18:54:50.383Z,6.28
2023-03-21T18:57:35.809Z,6.55
2023-03-21T19:00:16.987Z,6.88
2023-03-21T19:02:50.781Z,6.00
2023-03-21T19:05:20.422Z,6.32
2023-03-21T19:07:48.631Z,5.72
2023-03-21T19:10:20.214Z,5.53
2023-03-21T19:12:52.634Z,5.88
2023-03-21T19:15:21.947Z,5.88
2023-03-21T19:20:36.822Z,6.22
2023-03-21T19:23:03.885Z,5.85
2023-03-21T19:25:31.211Z,6.18
2023-03-21T19:27:58.141Z,6.22
2023-03-21T19:30:25.188Z,6.00
2023-03-21T19:32:52.034Z,7.07
2023-03-21T19:35:19.018Z,7.05
2023-03-21T19:37:46.839Z,6.85
2023-03-21T19:40:14.801Z,8.18
2023-03-21T19:42:43.138Z,8.63
2023-03-21T19:45:10.854Z,8.82
2023-03-21T19:47:37.703Z,9.63
2023-03-21T19:53:01.413Z,7.78
2023-03-21T19:55:28.497Z,8.25
2023-03-21T19:57:57.155Z,7.68
2023-03-21T20:00:24.714Z,7.72
2023-03-21T20:02:51.814Z,7.53
2023-03-21T20:05:25.638Z,7.25
2023-03-21T20:07:58.428Z,7.57
2023-03-21T20:10:28.282Z,7.03
2023-03-21T20:12:58.037Z,6.93
2023-03-21T20:15:26.909Z,7.22
2023-03-21T20:17:56.173Z,8.27
2023-03-21T20:20:24.103Z,7.53
2023-03-21T20:23:06.358Z,7.60
2023-03-21T20:25:34.878Z,8.00
2023-03-21T20:28:15.115Z,7.30
2023-03-21T20:30:53.244Z,6.80
2023-03-21T20:33:21.261Z,6.75
2023-03-21T20:38:37.439Z,6.85
2023-03-21T20:41:06.494Z,6.43
2023-03-21T20:44:28.172Z,6.53
2023-03-21T20:46:22.046Z,6.85
2023-03-21T20:48:49.756Z,6.38
2023-03-21T20:52:32.650Z,6.00
2023-03-21T20:54:11.698Z,6.55
2023-03-21T20:56:39.418Z,6.97
2023-03-21T20:59:17.659Z,7.72
2023-03-21T21:01:48.294Z,7.32
2023-03-21T21:04:20.234Z,7.00
2023-03-21T21:06:48.667Z,6.75
2023-03-21T21:09:17.369Z,6.82
2023-03-21T21:14:32.402Z,7.18
2023-03-21T21:17:22.506Z,7.15
2023-03-21T21:19:50.720Z,6.63
2023-03-21T21:22:17.872Z,6.80
2023-03-21T21:24:45.665Z,7.90
2023-03-21T21:27:12.822Z,7.05
2023-03-21T21:29:39.648Z,7.03
2023-03-21T21:32:06.463Z,6.50
2023-03-21T21:34:33.520Z,7.93
2023-03-21T21:37:00.657Z,9.32
2023-03-21T21:39:27.749Z,10.05
2023-03-21T21:41:54.974Z,9.02
2023-03-21T21:44:22.315Z,10.02
2023-03-21T21:46:49.234Z,9.50
2023-03-21T21:49:16.545Z,7.97
2023-03-21T21:51:44.230Z,7.22
2023-03-21T21:54:18.567Z,8.13
2023-03-21T21:56:49.168Z,8.00
2023-03-21T21:59:16.257Z,7.40
2023-03-21T22:01:43.160Z,7.65
2023-03-21T22:04:11.405Z,7.10
2023-03-21T22:06:38.278Z,7.15
2023-03-21T22:09:05.594Z,7.82
2023-03-21T22:11:32.961Z,7.10
2023-03-21T22:13:59.864Z,6.07
2023-03-21T22:16:26.773Z,6.60
2023-03-21T22:18:53.830Z,7.35
2023-03-21T22:21:20.704Z,7.07
2023-03-21T22:23:47.858Z,7.00
2023-03-21T22:26:15.026Z,6.20
2023-03-21T22:28:43.323Z,7.13
2023-03-21T22:31:16.256Z,7.07
2023-03-21T22:33:44.650Z,7.70
2023-03-21T22:36:12.160Z,6.60
2023-03-21T22:38:42.028Z,6.35
2023-03-21T22:41:09.577Z,6.63
2023-03-21T22:43:36.581Z,6.88
2023-03-21T22:46:04.495Z,7.13
2023-03-21T22:48:32.045Z,7.05
2023-03-21T22:51:02.121Z,6.72
2023-03-21T22:53:29.809Z,6.93
2023-03-21T22:55:57.986Z,7.28
2023-03-21T22:58:24.952Z,7.45
2023-03-21T23:00:51.986Z,6.93
2023-03-21T23:03:19.097Z,7.65
2023-03-21T23:05:46.009Z,6.05
2023-03-21T23:08:13.282Z,6.53
2023-03-21T23:10:43.879Z,6.55
2023-03-21T23:13:11.119Z,6.32
2023-03-21T23:15:38.780Z,6.38
2023-03-21T23:18:05.943Z,6.10
2023-03-21T23:20:32.866Z,6.50
2023-03-21T23:22:59.878Z,6.32
2023-03-21T23:25:29.048Z,6.72
2023-03-21T23:27:56.258Z,6.03
2023-03-21T23:30:23.438Z,5.82
2023-03-21T23:32:50.373Z,5.80
2023-03-21T23:35:17.342Z,6.53
2023-03-21T23:37:50.162Z,6.97
2023-03-21T23:40:17.170Z,6.20
2023-03-21T23:42:44.166Z,6.57
2023-03-21T23:45:11.849Z,6.68
2023-03-21T23:47:38.772Z,6.50
2023-03-21T23:50:07.883Z,6.15
2023-03-21T23:52:37.044Z,5.90
2023-03-21T23:55:05.570Z,6.47
2023-03-21T23:57:32.467Z,6.13
2023-03-21T23:59:59.677Z,6.55
